createdAt,value
2023-01-07T00:02:25.186Z,101492.75
2023-01-07T00:07:30.168Z,101491.75
2023-01-07T00:12:34.143Z,101493.22
2023-01-07T00:17:38.722Z,101497.34
2023-01-07T00:22:43.359Z,101494.59
2023-01-07T00:27:49.042Z,101500.47
2023-01-07T00:33:05.759Z,101512.25
2023-01-07T00:38:10.773Z,101533.56
2023-01-07T00:43:16.353Z,101513.41
2023-01-07T00:48:21.397Z,101506.22
2023-01-07T00:53:26.411Z,101509.25
2023-01-07T00:58:32.492Z,101526.13
2023-01-07T01:03:37.201Z,101539.53
2023-01-07T01:08:47.541Z,101545.19
2023-01-07T01:13:53.693Z,101545.72
2023-01-07T01:18:58.383Z,101556.59
2023-01-07T01:24:04.512Z,101557.88
2023-01-07T01:29:09.976Z,101563.59
2023-01-07T01:34:16.132Z,101563.19
2023-01-07T01:39:21.711Z,101577.44
2023-01-07T01:44:48.490Z,101559.78
2023-01-07T01:50:25.362Z,101560.03
2023-01-07T01:55:36.178Z,101567.16
2023-01-07T02:00:43.715Z,101575.28
2023-01-07T02:05:50.564Z,101596.25
2023-01-07T02:11:22.589Z,101565.22
2023-01-07T02:16:44.357Z,101557.47
2023-01-07T02:22:01.029Z,101575.72
2023-01-07T02:27:28.698Z,101529.41
2023-01-07T02:32:38.570Z,101532.34
2023-01-07T02:38:18.589Z,101513.75
2023-01-07T02:43:36.781Z,101494.22
2023-01-07T02:48:43.857Z,101494.47
2023-01-07T02:53:52.125Z,101520.75
2023-01-07T02:59:17.985Z,101481.13
2023-01-07T03:04:35.120Z,101460.75
2023-01-07T03:10:01.193Z,101454.19
2023-01-07T03:15:05.474Z,101442.19
2023-01-07T03:20:11.463Z,101433.63
2023-01-07T03:25:18.136Z,101427.94
2023-01-07T03:30:26.053Z,101410.16
2023-01-07T03:35:34.679Z,101413.03
2023-01-07T03:40:39.894Z,101415.75
2023-01-07T03:45:47.424Z,101415.63
2023-01-07T03:50:52.258Z,101410.31
2023-01-07T03:55:58.142Z,101384.38
2023-01-07T04:01:03.025Z,101389.25
2023-01-07T04:06:07.719Z,101395.50
2023-01-07T04:11:12.887Z,101371.78
2023-01-07T04:16:18.932Z,101378.16
2023-01-07T04:21:23.944Z,101378.09
2023-01-07T04:26:30.515Z,101372.88
2023-01-07T04:31:36.162Z,101364.91
2023-01-07T04:36:41.536Z,101355.25
2023-01-07T04:41:47.360Z,101338.34
2023-01-07T04:46:53.286Z,101343.75
2023-01-07T04:51:58.265Z,101332.56
2023-01-07T04:57:03.545Z,101332.84
2023-01-07T05:02:08.611Z,101304.78
2023-01-07T05:07:14.637Z,101284.44
2023-01-07T05:12:19.482Z,101279.84
2023-01-07T05:17:25.312Z,101283.28
2023-01-07T05:22:30.792Z,101257.72
2023-01-07T05:27:35.687Z,101228.53
2023-01-07T05:32:42.224Z,101220.41
2023-01-07T05:37:48.181Z,101220.97
2023-01-07T05:42:53.177Z,101213.63
2023-01-07T05:47:58.158Z,101240.81
2023-01-07T05:53:03.027Z,101216.38
2023-01-07T05:58:09.148Z,101224.25
2023-01-07T06:03:13.939Z,101208.66
2023-01-07T06:08:19.393Z,101217.47
2023-01-07T06:13:24.765Z,101217.53
2023-01-07T06:18:30.458Z,101211.22
2023-01-07T06:23:35.427Z,101188.81
2023-01-07T06:28:40.252Z,101237.16
2023-01-07T06:33:47.863Z,101206.31
2023-01-07T06:38:52.612Z,101200.53
2023-01-07T06:43:57.432Z,101182.19
2023-01-07T06:49:02.954Z,101184.00
2023-01-07T06:54:08.644Z,101192.59
2023-01-07T06:59:14.096Z,101193.31
2023-01-07T07:04:18.943Z,101184.22
2023-01-07T07:09:27.798Z,101183.94
2023-01-07T07:14:35.792Z,101168.84
2023-01-07T07:19:44.453Z,101187.06
2023-01-07T07:24:49.811Z,101197.09
2023-01-07T07:29:54.709Z,101172.91
2023-01-07T07:34:59.576Z,101137.66
2023-01-07T07:40:05.535Z,101168.09
2023-01-07T07:45:11.378Z,101135.09
2023-01-07T07:50:16.193Z,101120.75
2023-01-07T07:55:26.031Z,101156.16
2023-01-07T08:00:31.342Z,101133.69
2023-01-07T08:05:37.583Z,101100.78
2023-01-07T08:10:42.842Z,101120.72
2023-01-07T08:15:48.830Z,101088.38
2023-01-07T08:20:58.388Z,101100.28
2023-01-07T08:26:05.676Z,101110.41
2023-01-07T08:31:11.302Z,101107.53
2023-01-07T08:36:23.024Z,101106.63
2023-01-07T08:41:28.302Z,101128.03
2023-01-07T08:46:33.212Z,101115.59
2023-01-07T08:51:38.422Z,101111.91
2023-01-07T08:56:43.332Z,101099.84
2023-01-07T09:01:48.335Z,101135.16
2023-01-07T09:06:53.716Z,101117.59
2023-01-07T09:11:58.661Z,101109.66
2023-01-07T09:17:03.481Z,101120.19
2023-01-07T09:22:08.214Z,101147.78
2023-01-07T09:27:13.092Z,101141.69
2023-01-07T09:32:18.997Z,101141.38
2023-01-07T09:37:24.781Z,101150.56
2023-01-07T09:42:43.730Z,101152.81
2023-01-07T09:47:53.676Z,101170.63
2023-01-07T09:53:04.723Z,101205.66
2023-01-07T09:58:18.393Z,101148.91
2023-01-07T10:03:27.426Z,101164.28
2023-01-07T10:08:50.359Z,101152.72
2023-01-07T10:14:13.212Z,101186.69
2023-01-07T10:19:25.963Z,101179.97
2023-01-07T10:24:40.924Z,101174.91
2023-01-07T10:29:54.592Z,101182.00
2023-01-07T10:35:01.787Z,101184.91
2023-01-07T10:40:09.759Z,101204.13
2023-01-07T10:45:31.539Z,101221.69
2023-01-07T10:50:51.671Z,101233.13
2023-01-07T10:56:15.595Z,101237.75
2023-01-07T11:01:32.381Z,101248.44
2023-01-07T11:06:46.871Z,101251.28
2023-01-07T11:11:53.579Z,101256.72
2023-01-07T11:17:10.319Z,101262.16
2023-01-07T11:22:36.753Z,101263.97
2023-01-07T11:27:48.168Z,101264.22
2023-01-07T11:33:02.073Z,101283.47
2023-01-07T11:38:31.138Z,101257.63
2023-01-07T11:43:41.610Z,101266.47
2023-01-07T11:48:54.307Z,101249.19
2023-01-07T11:54:01.681Z,101247.59
2023-01-07T11:59:18.268Z,101254.53
2023-01-07T12:04:28.506Z,101241.88
2023-01-07T12:09:38.614Z,101240.00
2023-01-07T12:14:50.895Z,101250.47
2023-01-07T12:20:31.184Z,101231.06
2023-01-07T12:25:35.984Z,101223.66
2023-01-07T12:30:56.663Z,101202.97
2023-01-07T12:36:18.404Z,101187.44
2023-01-07T12:41:47.188Z,101190.59
2023-01-07T12:47:35.083Z,101189.47
2023-01-07T12:52:49.508Z,101190.81
2023-01-07T12:58:32.316Z,101185.97
2023-01-07T13:04:10.423Z,101185.28
2023-01-07T13:09:48.117Z,101205.34
2023-01-07T13:14:59.028Z,101199.56
2023-01-07T13:20:07.939Z,101218.69
2023-01-07T13:25:24.395Z,101222.22
2023-01-07T13:30:48.487Z,101218.75
2023-01-07T13:36:08.734Z,101217.81
2023-01-07T13:41:27.782Z,101233.16
2023-01-07T13:46:46.638Z,101285.75
2023-01-07T13:51:53.191Z,101240.13
2023-01-07T13:57:04.813Z,101247.13
2023-01-07T14:02:21.167Z,101229.19
2023-01-07T14:07:28.464Z,101225.78
2023-01-07T14:13:01.085Z,101220.28
2023-01-07T14:18:36.627Z,101235.44
2023-01-07T14:24:15.808Z,101225.03
2023-01-07T14:29:34.613Z,101247.41
2023-01-07T14:34:40.645Z,101218.94
2023-01-07T14:39:49.182Z,101246.63
2023-01-07T14:44:55.157Z,101215.16
2023-01-07T14:50:20.570Z,101214.09
2023-01-07T14:56:17.060Z,101256.72
2023-01-07T15:01:55.983Z,101233.88
2023-01-07T15:07:04.002Z,101239.41
2023-01-07T15:12:33.765Z,101241.28
2023-01-07T15:17:41.726Z,101236.34
2023-01-07T15:22:47.970Z,101232.09
2023-01-07T15:27:59.439Z,101225.78
2023-01-07T15:33:41.350Z,101247.88
2023-01-07T15:38:55.369Z,101240.69
2023-01-07T15:44:05.292Z,101220.72
2023-01-07T15:49:19.675Z,101214.63
2023-01-07T15:54:32.414Z,101218.19
2023-01-07T15:59:59.718Z,101213.16
2023-01-07T16:05:09.205Z,101219.53
2023-01-07T16:10:26.550Z,101220.84
2023-01-07T16:15:41.011Z,101214.31
2023-01-07T16:21:07.238Z,101233.75
2023-01-07T16:26:21.890Z,101229.63
2023-01-07T16:31:31.345Z,101216.88
2023-01-07T16:36:44.659Z,101204.59
2023-01-07T16:41:50.979Z,101211.34
2023-01-07T16:47:26.422Z,101213.75
2023-01-07T16:52:35.767Z,101222.38
2023-01-07T16:57:47.305Z,101281.00
2023-01-07T17:03:01.026Z,101201.81
2023-01-07T17:08:21.267Z,101207.28
2023-01-07T17:13:27.402Z,101197.22
2023-01-07T17:18:32.545Z,101224.09
2023-01-07T17:23:44.430Z,101187.25
2023-01-07T17:28:59.278Z,101189.97
2023-01-07T17:34:04.978Z,101188.50
2023-01-07T17:39:12.332Z,101228.09
2023-01-07T17:44:18.285Z,101184.44
2023-01-07T17:49:23.195Z,101187.91
2023-01-07T17:54:28.676Z,101181.06
2023-01-07T17:59:32.860Z,101192.00
2023-01-07T18:04:38.589Z,101217.88
2023-01-07T18:09:44.756Z,101205.00
2023-01-07T18:14:53.591Z,101201.47
2023-01-07T18:20:03.282Z,101230.13
2023-01-07T18:25:09.829Z,101243.06
2023-01-07T18:30:17.733Z,101201.16
2023-01-07T18:35:23.906Z,101234.00
2023-01-07T18:40:29.593Z,101249.72
2023-01-07T18:45:36.631Z,101235.22
2023-01-07T18:50:46.068Z,101194.09
2023-01-07T18:56:01.363Z,101203.81
2023-01-07T19:01:07.620Z,101221.84
2023-01-07T19:06:13.950Z,101201.09
2023-01-07T19:11:20.114Z,101204.47
2023-01-07T19:16:24.940Z,101192.53
2023-01-07T19:21:31.886Z,101227.84
2023-01-07T19:26:37.741Z,101188.06
2023-01-07T19:31:44.249Z,101189.03
2023-01-07T19:36:49.083Z,101167.84
2023-01-07T19:41:53.835Z,101159.56
2023-01-07T19:46:59.227Z,101166.56
2023-01-07T19:52:04.815Z,101161.63
2023-01-07T19:57:10.841Z,101162.84
2023-01-07T20:02:16.477Z,101205.13
2023-01-07T20:07:21.957Z,101188.16
2023-01-07T20:12:26.569Z,101206.28
2023-01-07T20:17:31.369Z,101178.84
2023-01-07T20:22:37.283Z,101179.59
2023-01-07T20:27:43.814Z,101182.84
2023-01-07T20:32:48.654Z,101150.06
2023-01-07T20:37:53.223Z,101179.19
2023-01-07T20:42:57.830Z,101154.38
2023-01-07T20:48:03.913Z,101151.16
2023-01-07T20:53:09.606Z,101162.50
2023-01-07T20:58:15.294Z,101224.56
2023-01-07T21:03:19.938Z,101148.41
2023-01-07T21:08:25.117Z,101151.13
2023-01-07T21:13:30.792Z,101188.06
2023-01-07T21:18:36.952Z,101183.81
2023-01-07T21:23:42.054Z,101181.03
2023-01-07T21:28:47.797Z,101174.94
2023-01-07T21:33:56.642Z,101199.69
2023-01-07T21:39:03.087Z,101189.38
2023-01-07T21:44:09.484Z,101209.16
2023-01-07T21:49:14.137Z,101192.16
2023-01-07T21:54:18.839Z,101212.03
2023-01-07T21:59:23.769Z,101180.53
2023-01-07T22:04:30.332Z,101208.94
2023-01-07T22:09:34.950Z,101215.94
2023-01-07T22:14:40.908Z,101203.09
2023-01-07T22:19:45.553Z,101248.72
2023-01-07T22:24:51.253Z,101222.19
2023-01-07T22:29:56.334Z,101231.72
2023-01-07T22:35:01.930Z,101261.72
2023-01-07T22:40:13.083Z,101328.50
2023-01-07T22:45:32.080Z,101250.25
2023-01-07T22:50:38.258Z,101241.47
2023-01-07T23:01:06.620Z,101248.53
2023-01-07T23:06:14.057Z,101246.25
2023-01-07T23:11:37.551Z,101261.88
2023-01-07T23:16:42.860Z,101265.53
2023-01-07T23:21:50.041Z,101288.72
2023-01-07T23:26:58.161Z,101264.78
2023-01-07T23:32:04.508Z,101281.97
2023-01-07T23:37:09.284Z,101284.53
2023-01-07T23:42:15.998Z,101330.72
2023-01-07T23:47:21.056Z,101299.88
2023-01-07T23:52:27.449Z,101273.16
